createdAt,value
2017-12-20T00:02:05.396Z,6.42
2017-12-20T00:04:33.640Z,6.35
2017-12-20T00:07:08.665Z,6.43
2017-12-20T00:09:36.982Z,6.37
2017-12-20T00:12:05.625Z,6.38
2017-12-20T00:14:34.080Z,6.34
2017-12-20T00:17:08.125Z,6.42
2017-12-20T00:19:36.443Z,6.31
2017-12-20T00:22:05.978Z,6.40
2017-12-20T00:24:34.453Z,6.29
2017-12-20T00:27:06.607Z,6.32
2017-12-20T00:29:34.929Z,6.36
2017-12-20T00:32:06.315Z,6.42
2017-12-20T00:34:34.586Z,6.38
2017-12-20T00:37:06.757Z,6.34
2017-12-20T00:39:35.370Z,6.37
2017-12-20T00:42:05.502Z,6.49
2017-12-20T00:44:33.800Z,6.50
2017-12-20T00:47:05.947Z,6.42
2017-12-20T00:49:34.243Z,6.48
2017-12-20T00:52:05.667Z,6.40
2017-12-20T00:54:33.943Z,6.31
2017-12-20T00:57:08.976Z,6.30
2017-12-20T00:59:37.247Z,6.43
2017-12-20T01:02:05.550Z,6.38
2017-12-20T01:04:34.445Z,6.37
2017-12-20T01:07:06.260Z,6.31
2017-12-20T01:09:34.508Z,6.38
2017-12-20T01:12:05.827Z,6.49
2017-12-20T01:14:34.359Z,6.49
2017-12-20T01:17:05.610Z,6.45
2017-12-20T01:19:33.917Z,6.41
2017-12-20T01:22:08.940Z,6.41
2017-12-20T01:24:37.233Z,6.37
2017-12-20T01:27:05.591Z,6.40
2017-12-20T01:29:33.894Z,6.54
2017-12-20T01:32:09.163Z,6.54
2017-12-20T01:34:37.462Z,6.50
2017-12-20T01:37:06.857Z,6.50
2017-12-20T01:39:35.133Z,6.46
2017-12-20T01:42:06.614Z,6.20
2017-12-20T01:44:35.101Z,6.32
2017-12-20T01:47:07.959Z,6.36
2017-12-20T01:49:36.948Z,6.42
2017-12-20T01:52:06.054Z,6.38
2017-12-20T01:54:34.324Z,6.47
2017-12-20T01:57:06.482Z,6.37
2017-12-20T01:59:34.825Z,6.34
2017-12-20T02:02:05.825Z,6.24
2017-12-20T02:04:34.113Z,6.20
2017-12-20T02:07:05.969Z,6.20
2017-12-20T02:09:34.232Z,6.29
2017-12-20T02:12:05.776Z,6.32
2017-12-20T02:14:34.062Z,6.36
2017-12-20T02:17:05.437Z,6.42
2017-12-20T02:19:33.733Z,6.39
2017-12-20T02:22:05.917Z,6.50
2017-12-20T02:24:34.234Z,6.50
2017-12-20T02:27:08.261Z,6.50
2017-12-20T02:29:36.553Z,6.43
2017-12-20T02:32:06.074Z,6.44
2017-12-20T02:34:34.382Z,6.49
2017-12-20T02:37:05.563Z,6.34
2017-12-20T02:39:33.873Z,6.32
2017-12-20T02:42:07.829Z,6.26
2017-12-20T02:44:36.132Z,6.38
2017-12-20T02:47:05.808Z,6.51
2017-12-20T02:49:34.109Z,6.39
2017-12-20T02:52:07.108Z,6.33
2017-12-20T02:54:35.394Z,6.41
2017-12-20T02:57:07.009Z,6.44
2017-12-20T02:59:35.321Z,6.41
2017-12-20T03:02:06.952Z,6.36
2017-12-20T03:04:35.227Z,6.16
2017-12-20T03:07:06.476Z,6.30
2017-12-20T03:09:35.525Z,6.37
2017-12-20T03:12:07.412Z,6.33
2017-12-20T03:14:35.701Z,6.24
2017-12-20T03:17:05.591Z,6.21
2017-12-20T03:19:33.844Z,6.21
2017-12-20T03:22:05.706Z,6.26
2017-12-20T03:24:34.476Z,6.37
2017-12-20T03:27:09.721Z,6.45
2017-12-20T03:29:38.007Z,6.49
2017-12-20T03:32:06.310Z,6.41
2017-12-20T03:34:34.625Z,6.57
2017-12-20T03:37:08.678Z,6.52
2017-12-20T03:39:36.980Z,6.55
2017-12-20T03:42:06.685Z,6.52
2017-12-20T03:44:34.980Z,6.52
2017-12-20T03:47:08.105Z,6.59
2017-12-20T03:49:36.405Z,6.58
2017-12-20T03:52:07.165Z,6.56
2017-12-20T12:15:09.457Z,7.86
2017-12-20T12:17:38.102Z,7.95
2017-12-20T12:20:06.425Z,7.99
2017-12-20T12:22:34.715Z,8.02
2017-12-20T12:25:03.156Z,7.84
2017-12-20T12:27:31.433Z,8.01
2017-12-20T12:29:59.748Z,8.13
2017-12-20T12:32:28.047Z,8.06
2017-12-20T12:34:56.345Z,8.13
2017-12-20T12:37:24.628Z,8.06
2017-12-20T12:39:52.930Z,8.25
2017-12-20T12:42:21.218Z,8.19
2017-12-20T12:44:49.825Z,8.11
2017-12-20T12:47:18.224Z,7.99
2017-12-20T12:49:46.503Z,8.09
2017-12-20T12:52:14.793Z,8.12
2017-12-20T12:54:43.097Z,8.08
2017-12-20T12:57:11.416Z,8.17
2017-12-20T12:59:39.920Z,8.13
2017-12-20T13:02:08.225Z,8.08
2017-12-20T13:04:36.508Z,8.17
2017-12-20T13:07:04.846Z,8.06
2017-12-20T13:09:33.136Z,8.08
2017-12-20T13:12:01.437Z,8.10
2017-12-20T13:14:29.713Z,8.05
2017-12-20T13:16:58.277Z,8.24
2017-12-20T13:19:26.750Z,8.26
2017-12-20T13:21:55.048Z,8.30
2017-12-20T13:24:23.358Z,8.08
2017-12-20T13:26:51.663Z,7.92
2017-12-20T13:29:19.960Z,8.07
2017-12-20T13:31:48.287Z,8.13
2017-12-20T13:34:16.576Z,8.08
2017-12-20T13:36:44.894Z,7.94
2017-12-20T13:39:13.182Z,7.98
2017-12-20T13:41:41.472Z,7.81
2017-12-20T13:44:10.064Z,7.91
2017-12-20T13:46:38.357Z,8.00
2017-12-20T13:49:06.677Z,8.04
2017-12-20T13:51:34.973Z,7.96
2017-12-20T13:54:03.494Z,7.86
2017-12-20T13:56:32.142Z,8.01
2017-12-20T13:59:00.897Z,8.03
2017-12-20T14:01:29.598Z,8.05
2017-12-20T14:04:01.263Z,8.09
2017-12-20T14:06:29.761Z,8.02
2017-12-20T14:09:00.018Z,8.07
2017-12-20T14:11:28.316Z,8.18
2017-12-20T14:13:59.265Z,8.12
2017-12-20T14:16:27.950Z,8.10
2017-12-20T14:18:59.232Z,8.10
2017-12-20T14:21:27.726Z,8.19
2017-12-20T14:24:02.901Z,8.13
2017-12-20T14:26:31.190Z,8.20
2017-12-20T14:28:59.472Z,8.17
2017-12-20T14:31:27.786Z,8.15
2017-12-20T14:34:01.770Z,8.20
2017-12-20T14:36:30.102Z,8.17
2017-12-20T14:39:00.141Z,8.17
2017-12-20T14:41:28.625Z,8.15
2017-12-20T14:43:59.936Z,8.15
2017-12-20T14:46:28.237Z,8.15
2017-12-20T14:48:59.451Z,8.16
2017-12-20T14:51:27.763Z,8.20
2017-12-20T14:54:00.445Z,8.18
2017-12-20T14:56:28.749Z,8.12
2017-12-20T14:59:00.288Z,8.12
2017-12-20T15:01:29.061Z,8.19
2017-12-20T15:04:01.024Z,8.14
2017-12-20T15:06:29.298Z,8.05
2017-12-20T15:08:59.702Z,8.14
2017-12-20T15:11:27.988Z,8.19
2017-12-20T15:14:00.134Z,8.17
2017-12-20T15:16:28.577Z,8.15
2017-12-20T15:19:00.128Z,8.12
2017-12-20T15:21:28.416Z,8.14
2017-12-20T15:23:59.420Z,8.20
2017-12-20T15:26:27.705Z,8.07
2017-12-20T15:28:59.879Z,8.07
2017-12-20T15:31:28.195Z,8.07
2017-12-20T15:33:58.342Z,8.08
2017-12-20T15:36:26.672Z,8.12
2017-12-20T15:38:58.436Z,8.12
2017-12-20T15:41:26.722Z,8.08
2017-12-20T15:44:00.925Z,7.90
2017-12-20T15:46:29.247Z,7.83
2017-12-20T15:48:58.766Z,7.75
2017-12-20T15:51:27.668Z,7.81
2017-12-20T15:54:00.049Z,7.96
2017-12-20T15:56:28.617Z,8.06
2017-12-20T15:58:58.633Z,8.13
2017-12-20T16:01:26.901Z,8.11
2017-12-20T16:04:00.901Z,8.03
2017-12-20T16:06:29.230Z,8.11
2017-12-20T16:08:58.917Z,8.12
2017-12-20T16:11:27.500Z,8.11
2017-12-20T16:13:59.156Z,8.11
2017-12-20T16:16:27.431Z,8.15
2017-12-20T16:18:58.748Z,8.18
2017-12-20T16:21:26.988Z,8.09
2017-12-20T16:23:58.581Z,8.11
2017-12-20T16:26:26.893Z,8.13
2017-12-20T16:29:00.841Z,8.19
2017-12-20T16:31:29.316Z,8.13
2017-12-20T16:33:59.006Z,8.17
2017-12-20T16:36:28.069Z,8.17
2017-12-20T16:38:59.795Z,8.21
2017-12-20T16:41:28.067Z,8.03
2017-12-20T16:43:59.847Z,8.05
2017-12-20T16:46:28.130Z,8.17
2017-12-20T16:48:59.481Z,8.23
2017-12-20T16:51:27.823Z,8.19
2017-12-20T16:53:59.414Z,8.16
2017-12-20T16:56:27.727Z,8.00
2017-12-20T16:59:00.231Z,8.11
2017-12-20T17:01:28.707Z,8.06
2017-12-20T17:03:58.256Z,8.18
2017-12-20T17:06:26.555Z,8.09
2017-12-20T17:08:59.389Z,8.03
2017-12-20T17:11:27.744Z,8.21
2017-12-20T17:13:59.312Z,8.22
2017-12-20T17:16:27.749Z,8.16
2017-12-20T17:18:59.371Z,8.21
2017-12-20T17:21:27.764Z,8.20
2017-12-20T17:24:00.156Z,8.24
2017-12-20T17:26:28.455Z,8.16
2017-12-20T17:28:59.673Z,8.09
2017-12-20T17:31:28.274Z,8.17
2017-12-20T17:34:00.112Z,8.15
2017-12-20T17:36:28.405Z,8.17
2017-12-20T17:38:58.301Z,8.19
2017-12-20T17:41:26.857Z,8.20
2017-12-20T17:44:00.828Z,8.22
2017-12-20T17:46:29.168Z,8.28
2017-12-20T17:48:58.629Z,8.20
2017-12-20T17:51:26.905Z,8.21
2017-12-20T17:53:58.316Z,8.17
2017-12-20T17:56:26.605Z,8.20
2017-12-20T17:58:58.072Z,8.26
2017-12-20T18:01:26.349Z,8.18
2017-12-20T18:03:57.799Z,8.19
2017-12-20T18:06:26.066Z,8.21
2017-12-20T18:08:58.318Z,8.27
2017-12-20T18:11:26.607Z,8.26
2017-12-20T18:13:58.200Z,8.25
2017-12-20T18:16:26.493Z,8.28
2017-12-20T18:18:57.791Z,8.27
2017-12-20T18:21:26.099Z,8.27
2017-12-20T18:23:57.813Z,8.25
2017-12-20T18:26:26.100Z,8.26
2017-12-20T18:28:58.262Z,8.29
2017-12-20T18:31:26.590Z,8.28
2017-12-20T18:33:58.576Z,8.28
2017-12-20T18:36:26.857Z,8.25
2017-12-20T18:38:58.805Z,8.36
2017-12-20T18:41:27.201Z,8.30
2017-12-20T18:43:59.176Z,8.24
2017-12-20T18:46:27.455Z,8.27
2017-12-20T18:48:59.800Z,8.25
2017-12-20T18:51:28.109Z,8.27
2017-12-20T18:54:00.441Z,8.30
2017-12-20T18:56:28.716Z,8.15
2017-12-20T18:58:59.482Z,8.10
2017-12-20T19:01:27.798Z,8.29
2017-12-20T19:03:59.725Z,8.18
2017-12-20T19:06:28.200Z,8.05
2017-12-20T19:08:58.418Z,8.16
2017-12-20T19:11:26.695Z,8.11
2017-12-20T19:14:01.861Z,8.07
2017-12-20T19:16:30.272Z,8.13
2017-12-20T19:18:58.521Z,8.21
2017-12-20T19:21:26.832Z,8.09
2017-12-20T19:23:58.890Z,8.02
2017-12-20T19:26:27.223Z,8.10
2017-12-20T19:28:58.305Z,8.08
2017-12-20T19:31:26.630Z,8.08
2017-12-20T19:33:59.090Z,8.08
2017-12-20T19:36:27.431Z,8.00
2017-12-20T19:38:58.741Z,7.94
2017-12-20T19:41:27.045Z,8.11
2017-12-20T19:43:58.527Z,8.13
2017-12-20T19:46:26.805Z,8.25
2017-12-20T19:48:59.923Z,8.18
2017-12-20T19:51:28.214Z,8.20
2017-12-20T19:54:00.029Z,8.27
2017-12-20T19:56:28.326Z,8.25
2017-12-20T19:58:58.288Z,8.28
2017-12-20T20:01:26.623Z,8.38
2017-12-20T20:03:58.273Z,8.26
2017-12-20T20:06:26.497Z,8.30
2017-12-20T20:08:58.407Z,8.27
2017-12-20T20:11:26.692Z,8.30
2017-12-20T20:14:01.872Z,8.31
2017-12-20T20:16:30.176Z,8.32
2017-12-20T20:18:58.457Z,8.39
2017-12-20T20:21:26.751Z,8.36
2017-12-20T20:24:01.761Z,8.38
2017-12-20T20:26:30.060Z,8.38
2017-12-20T20:28:58.354Z,8.30
2017-12-20T20:31:27.313Z,8.27
2017-12-20T20:33:58.357Z,8.32
2017-12-20T20:36:26.867Z,8.46
2017-12-20T20:39:00.893Z,8.42
2017-12-20T20:41:29.184Z,8.37
2017-12-20T20:44:02.633Z,8.29
2017-12-20T20:46:30.932Z,8.29
2017-12-20T20:48:59.258Z,8.28
2017-12-20T20:51:27.538Z,8.31
2017-12-20T20:53:58.331Z,8.35
2017-12-20T20:56:26.609Z,8.42
2017-12-20T20:59:01.898Z,8.43
2017-12-20T21:01:30.174Z,8.38
2017-12-20T21:03:58.482Z,8.41
2017-12-20T21:06:26.772Z,8.43
2017-12-20T21:09:01.810Z,8.28
2017-12-20T21:11:30.086Z,8.27
2017-12-20T21:13:58.465Z,8.28
2017-12-20T21:16:26.780Z,8.22
2017-12-20T21:18:58.168Z,8.28
2017-12-20T21:21:26.465Z,8.34
2017-12-20T21:24:01.451Z,8.38
2017-12-20T21:26:29.756Z,8.36
2017-12-20T21:28:58.531Z,8.35
2017-12-20T21:31:26.839Z,8.41
2017-12-20T21:33:59.468Z,8.43
2017-12-20T21:36:28.155Z,8.47
2017-12-20T21:38:58.506Z,8.43
2017-12-20T21:41:26.800Z,8.32
2017-12-20T21:44:01.969Z,8.39
2017-12-20T21:46:30.524Z,8.41
2017-12-20T21:48:58.812Z,8.19
2017-12-20T21:51:27.101Z,8.37
2017-12-20T21:53:58.418Z,8.28
2017-12-20T21:56:26.710Z,8.18
2017-12-20T21:58:58.681Z,8.25
2017-12-20T22:01:27.000Z,8.32
2017-12-20T22:03:59.566Z,8.38
2017-12-20T22:06:27.846Z,8.33
2017-12-20T22:08:59.995Z,8.43
2017-12-20T22:11:28.383Z,8.46
2017-12-20T22:13:58.758Z,8.36
2017-12-20T22:16:27.046Z,8.44
2017-12-20T22:18:59.035Z,8.37
2017-12-20T22:21:27.341Z,8.45
2017-12-20T22:23:58.986Z,8.36
2017-12-20T22:26:27.290Z,8.46
2017-12-20T22:28:58.837Z,8.49
2017-12-20T22:31:27.135Z,8.41
2017-12-20T22:33:58.483Z,8.45
2017-12-20T22:36:26.791Z,8.41
2017-12-20T22:38:58.843Z,8.48
2017-12-20T22:41:28.164Z,8.55
2017-12-20T22:44:00.756Z,8.49
2017-12-20T22:46:29.856Z,8.49
2017-12-20T22:48:58.738Z,8.40
2017-12-20T22:51:27.352Z,8.28
2017-12-20T22:53:58.706Z,8.37
2017-12-20T22:56:26.994Z,8.44
2017-12-20T22:58:59.139Z,8.41
2017-12-20T23:01:27.502Z,8.48
2017-12-20T23:04:01.777Z,8.33
2017-12-20T23:06:30.093Z,8.40
2017-12-20T23:08:59.393Z,8.63
2017-12-20T23:11:28.195Z,8.66
2017-12-20T23:13:59.582Z,8.67
2017-12-20T23:16:27.874Z,8.72
2017-12-20T23:18:59.738Z,8.66
2017-12-20T23:21:28.825Z,8.64
2017-12-20T23:24:00.365Z,8.65
2017-12-20T23:26:28.668Z,8.71
2017-12-20T23:29:00.208Z,8.77
2017-12-20T23:31:28.488Z,8.72
2017-12-20T23:33:59.960Z,8.62
2017-12-20T23:36:28.238Z,8.71
2017-12-20T23:39:00.342Z,8.71
2017-12-20T23:41:28.638Z,8.70
2017-12-20T23:44:00.373Z,8.71
2017-12-20T23:46:28.670Z,8.65
2017-12-20T23:49:00.595Z,8.71
2017-12-20T23:51:29.502Z,8.78
2017-12-20T23:53:59.223Z,8.85
2017-12-20T23:56:27.545Z,8.79
2017-12-20T23:58:59.450Z,8.71
